Time;durP1;ratioP1;P1;durP2;ratioP2;P2;SDS_P1;SDS_P2;PMS_P1;PMS_P2;Temp;Humidity;BMP_temperature;BMP_pressure;BME280_temperature;BME280_humidity;BME280_pressure;Samples;Min_cycle;Max_cycle;Signal;HPM_P1;HPM_P2
2021/11/16 00:01:39;;;;;;;67.97;29.17;;;;;;;5.47;88.65;102844.00;5035328;28;20032;-55
2021/11/16 00:04:09;;;;;;;66.80;28.48;;;;;;;5.44;88.83;102841.66;5041053;28;20032;-57
2021/11/16 00:06:36;;;;;;;63.20;27.42;;;;;;;5.52;88.55;102846.16;5038316;28;20032;-56
2021/11/16 00:09:04;;;;;;;62.78;28.73;;;;;;;5.53;88.80;102842.50;5039055;28;20114;-54
2021/11/16 00:11:31;;;;;;;69.53;28.88;;;;;;;5.53;88.67;102842.50;5036899;28;20470;-55
2021/11/16 00:13:57;;;;;;;63.05;27.02;;;;;;;5.53;88.48;102840.66;5040445;28;20036;-57
2021/11/16 00:16:23;;;;;;;60.30;26.58;;;;;;;5.51;88.65;102841.84;5042698;28;20017;-55
2021/11/16 00:18:58;;;;;;;62.03;28.02;;;;;;;5.47;88.69;102841.34;5043423;28;20483;-55
2021/11/16 00:21:25;;;;;;;;;;;;;;;5.41;89.15;102845.50;5039643;28;20047;-55
2021/11/16 00:23:56;;;;;;;62.60;28.30;;;;;;;5.51;88.97;102842.66;5036434;28;20236;-56
2021/11/16 00:26:22;;;;;;;66.82;28.88;;;;;;;5.53;88.49;102845.16;5039656;28;20029;-58
2021/11/16 00:28:48;;;;;;;69.05;29.27;;;;;;;5.52;88.75;102843.50;5039627;28;20028;-56
2021/11/16 00:31:14;;;;;;;72.57;30.02;;;;;;;5.51;88.80;102847.97;5037840;28;20032;-56
2021/11/16 00:33:40;;;;;;;67.60;28.23;;;;;;;5.56;88.64;102845.66;5042160;28;20029;-54
2021/11/16 00:36:06;;;;;;;70.82;30.25;;;;;;;5.49;89.08;102839.34;5044204;28;20021;-57
2021/11/16 00:38:34;;;;;;;64.70;29.67;;;;;;;5.51;89.27;102837.34;5036340;28;20467;-54
2021/11/16 00:41:00;;;;;;;64.35;28.67;;;;;;;5.54;88.76;102836.19;5037819;28;20060;-54
2021/11/16 00:43:25;;;;;;;70.93;31.77;;;;;;;5.54;88.81;102839.69;5042917;28;20090;-57
2021/11/16 00:45:51;;;;;;;64.88;29.13;;;;;;;5.53;89.39;102845.16;5040401;28;20026;-53
2021/11/16 00:48:20;;;;;;;66.30;30.40;;;;;;;5.51;89.33;102833.84;5038309;28;20108;-55
2021/11/16 00:50:49;;;;;;;61.22;29.50;;;;;;;5.47;89.47;102841.34;5041786;28;20459;-53
2021/11/16 00:53:15;;;;;;;72.68;30.55;;;;;;;5.49;89.46;102841.16;5038108;28;20443;-54
2021/11/16 00:55:40;;;;;;;73.75;29.50;;;;;;;5.52;89.63;102847.00;5039500;28;20155;-57
2021/11/16 00:58:06;;;;;;;72.03;29.77;;;;;;;5.54;89.35;102847.66;5041629;28;20033;-57
2021/11/16 01:00:31;;;;;;;78.63;32.05;;;;;;;5.46;89.83;102845.00;5036033;28;20035;-53
2021/11/16 01:02:57;;;;;;;80.25;30.02;;;;;;;5.45;90.29;102848.66;5040500;28;20434;-54
2021/11/16 01:05:23;;;;;;;69.05;30.27;;;;;;;5.53;89.83;102846.00;5040649;28;20022;-53
2021/11/16 01:07:49;;;;;;;75.50;31.48;;;;;;;5.49;89.92;102839.34;5042386;28;20030;-55
2021/11/16 01:10:18;;;;;;;69.93;31.65;;;;;;;5.51;90.15;102834.69;5035405;28;20051;-58
2021/11/16 01:12:43;;;;;;;67.70;29.83;;;;;;;5.51;89.97;102842.66;5038538;28;20128;-53
2021/11/16 01:15:11;;;;;;;65.47;31.65;;;;;;;5.53;89.69;102840.66;5039878;28;20101;-55
2021/11/16 01:17:37;;;;;;;68.20;30.38;;;;;;;5.58;90.04;102840.19;5035650;28;20232;-55
2021/11/16 01:20:06;;;;;;;64.93;29.35;;;;;;;5.55;89.50;102836.03;5042082;28;20210;-53
2021/11/16 01:22:32;;;;;;;68.43;29.73;;;;;;;5.54;89.73;102837.00;5039731;28;20474;-55
2021/11/16 01:24:57;;;;;;;76.22;31.05;;;;;;;5.54;90.27;102837.00;5034759;28;20036;-57
2021/11/16 01:27:25;;;;;;;73.30;30.98;;;;;;;5.45;91.38;102832.69;5043518;28;20036;-55
2021/11/16 01:29:51;;;;;;;73.65;31.80;;;;;;;5.51;90.72;102834.69;5035825;28;20075;-55
2021/11/16 01:34:53;;;;;;;72.68;30.38;;;;;;;5.54;90.45;102831.69;5035542;28;20032;-54
2021/11/16 01:37:18;;;;;;;72.32;31.83;;;;;;;5.50;90.90;102832.19;5037529;28;20057;-58
2021/11/16 01:39:44;;;;;;;73.95;30.48;;;;;;;5.56;90.64;102827.03;5033849;28;20110;-55
2021/11/16 01:42:10;;;;;;;75.28;30.95;;;;;;;5.57;90.35;102826.06;5036950;28;20032;-53
2021/11/16 01:44:37;;;;;;;76.32;33.70;;;;;;;5.57;90.62;102826.06;5039788;28;20076;-55
2021/11/16 01:47:02;;;;;;;74.65;30.75;;;;;;;5.53;90.52;102824.72;5042281;28;20390;-55
2021/11/16 01:49:28;;;;;;;76.05;30.50;;;;;;;5.57;90.65;102822.59;5039561;28;20398;-54
2021/11/16 01:51:53;;;;;;;86.65;31.00;;;;;;;5.57;90.18;102814.63;5039063;28;20033;-56
2021/11/16 01:54:19;;;;;;;79.70;31.67;;;;;;;5.58;90.47;102819.75;5040145;28;20099;-55
2021/11/16 01:56:45;;;;;;;73.53;29.80;;;;;;;5.59;90.80;102816.09;5033258;28;20021;-57
2021/11/16 01:59:13;;;;;;;82.47;33.22;;;;;;;5.60;90.64;102811.63;5041457;28;20040;-54
2021/11/16 02:01:40;;;;;;;85.82;32.40;;;;;;;5.55;91.07;102806.78;5036372;28;20041;-56
2021/11/16 02:04:08;;;;;;;76.72;30.60;;;;;;;5.55;90.84;102801.44;5038735;28;20032;-58
2021/11/16 02:06:37;;;;;;;82.82;31.05;;;;;;;5.57;90.72;102804.81;5035535;28;20021;-56
2021/11/16 02:09:06;;;;;;;85.95;33.05;;;;;;;5.58;91.05;102803.81;5035813;28;20029;-54
2021/11/16 02:11:32;;;;;;;73.60;31.10;;;;;;;5.61;90.95;102800.81;5035059;28;20025;-55
2021/11/16 02:13:58;;;;;;;86.13;33.03;;;;;;;5.61;91.19;102797.31;5036951;28;20021;-54
2021/11/16 02:16:24;;;;;;;83.40;32.92;;;;;;;5.57;91.33;102796.84;5036970;28;20136;-57
2021/11/16 02:18:49;;;;;;;78.53;31.98;;;;;;;5.58;91.17;102793.16;5037727;28;20037;-55
2021/11/16 02:21:16;;;;;;;79.97;32.83;;;;;;;5.58;91.48;102787.03;5037064;28;20031;-56
2021/11/16 02:23:43;;;;;;;76.22;31.88;;;;;;;5.58;90.94;102777.22;5037723;28;20037;-55
2021/11/16 02:26:09;;;;;;;73.60;30.08;;;;;;;5.61;91.11;102768.06;5036720;28;20025;-55
2021/11/16 02:28:35;;;;;;;82.78;32.20;;;;;;;5.63;91.22;102782.84;5039197;28;20048;-55
2021/11/16 02:31:03;;;;;;;78.50;32.47;;;;;;;5.61;91.23;102774.22;5037500;28;20087;-53
2021/11/16 02:33:28;;;;;;;86.32;33.58;;;;;;;5.61;91.59;102773.38;5031799;28;20157;-54
2021/11/16 02:35:54;;;;;;;83.35;31.80;;;;;;;5.62;91.45;102778.53;5036164;28;20420;-54
2021/11/16 02:38:20;;;;;;;84.20;33.55;;;;;;;5.65;91.22;102772.06;5035172;28;20033;-57
2021/11/16 02:40:46;;;;;;;83.18;31.83;;;;;;;5.65;90.82;102764.91;5033121;28;20086;-54
2021/11/16 02:43:12;;;;;;;75.95;31.27;;;;;;;5.66;90.85;102761.25;5033596;28;20483;-58
2021/11/16 02:45:39;;;;;;;76.03;32.53;;;;;;;5.64;90.96;102755.28;5040060;28;20045;-58
2021/11/16 02:48:12;;;;;;;86.10;32.53;;;;;;;5.63;91.13;102750.94;5038282;28;20109;-57
2021/11/16 02:50:44;;;;;;;82.35;30.67;;;;;;;5.58;91.73;102747.97;5032123;28;20406;-54
2021/11/16 02:53:10;;;;;;;81.72;31.88;;;;;;;5.60;90.97;102742.47;5026401;28;20463;-54
2021/11/16 02:55:36;;;;;;;81.75;33.38;;;;;;;5.58;91.73;102750.63;5039008;28;20208;-54
2021/11/16 02:58:04;;;;;;;73.00;33.33;;;;;;;5.60;91.39;102737.16;5034961;28;20029;-57
2021/11/16 03:00:30;;;;;;;93.25;34.03;;;;;;;5.66;91.48;102739.16;5035093;28;20051;-58
2021/11/16 03:02:56;;;;;;;85.10;31.75;;;;;;;5.65;91.02;102737.47;5039427;28;20104;-55
2021/11/16 03:05:22;;;;;;;85.05;31.40;;;;;;;5.63;91.21;102735.00;5044282;28;20168;-58
2021/11/16 03:07:55;;;;;;;88.78;32.60;;;;;;;5.59;91.68;102727.53;5042874;28;20032;-55
2021/11/16 03:10:29;;;;;;;77.68;30.38;;;;;;;5.56;91.89;102715.38;5036065;28;20160;-55
2021/11/16 03:12:55;;;;;;;89.15;33.88;;;;;;;5.56;92.04;102727.81;5040045;28;20096;-57
2021/11/16 03:15:21;;;;;;;83.65;31.88;;;;;;;5.61;91.42;102726.34;5042248;28;20116;-57
2021/11/16 03:17:47;;;;;;;87.53;32.13;;;;;;;5.62;91.79;102728.00;5042884;28;20025;-53
2021/11/16 03:20:15;;;;;;;91.30;33.40;;;;;;;5.63;91.66;102729.69;5042124;28;20058;-55
2021/11/16 03:22:48;;;;;;;83.15;31.17;;;;;;;5.63;91.07;102732.34;5040960;28;20433;-54
2021/11/16 03:25:14;;;;;;;83.10;32.58;;;;;;;5.66;91.21;102721.34;5038381;28;20083;-57
2021/11/16 03:27:42;;;;;;;94.10;33.00;;;;;;;5.63;91.35;102724.34;5040287;28;20398;-55
2021/11/16 03:30:08;;;;;;;77.70;32.53;;;;;;;5.68;91.47;102718.53;5040032;28;20387;-52
2021/11/16 03:32:35;;;;;;;79.35;31.20;;;;;;;5.68;91.30;102722.00;5045583;28;20375;-53
2021/11/16 03:35:03;;;;;;;80.80;30.45;;;;;;;5.70;91.21;102714.69;5042073;28;20024;-56
2021/11/16 03:37:40;;;;;;;81.25;31.95;;;;;;;5.72;91.13;102712.69;5037718;28;20490;-55
2021/11/16 03:40:06;;;;;;;84.72;31.50;;;;;;;5.69;91.06;102704.22;5041844;28;20029;-58
2021/11/16 03:42:34;;;;;;;85.60;33.17;;;;;;;5.68;91.00;102706.06;5039550;28;20441;-54
2021/11/16 03:44:59;;;;;;;87.38;32.83;;;;;;;5.67;91.23;102707.06;5038533;28;20536;-52
2021/11/16 03:47:25;;;;;;;82.00;32.50;;;;;;;5.70;91.09;102704.06;5040430;28;21590;-56
2021/11/16 03:49:51;;;;;;;82.40;32.13;;;;;;;5.72;90.56;102696.75;5038337;28;20035;-55
2021/11/16 03:52:21;;;;;;;80.93;32.33;;;;;;;5.73;90.79;102697.56;5043271;28;20279;-54
2021/11/16 03:54:47;;;;;;;81.13;32.92;;;;;;;5.70;90.91;102697.91;5042710;28;20017;-57
2021/11/16 03:57:13;;;;;;;88.18;32.60;;;;;;;5.73;90.96;102692.25;5043324;28;20052;-54
2021/11/16 03:59:39;;;;;;;74.97;30.40;;;;;;;5.76;90.38;102698.09;5039961;28;20119;-55
2021/11/16 04:02:04;;;;;;;86.30;32.22;;;;;;;5.78;90.61;102691.75;5038038;28;20025;-55
2021/11/16 04:04:31;;;;;;;75.97;32.42;;;;;;;5.81;90.17;102696.75;5035374;28;20060;-55
2021/11/16 04:06:57;;;;;;;85.18;32.80;;;;;;;5.76;90.33;102690.09;5040516;28;20021;-56
2021/11/16 04:09:22;;;;;;;75.97;30.90;;;;;;;5.78;90.69;102689.94;5041598;28;20075;-58
2021/11/16 04:11:48;;;;;;;82.45;32.00;;;;;;;5.79;90.47;102675.63;5042252;28;20033;-53
2021/11/16 04:14:13;;;;;;;78.30;30.17;;;;;;;5.81;90.45;102667.47;5035782;28;20094;-56
2021/11/16 04:16:39;;;;;;;76.43;28.65;;;;;;;5.79;90.28;102672.97;5035451;28;20029;-54
2021/11/16 04:19:04;;;;;;;81.53;31.83;;;;;;;5.76;90.22;102668.81;5039902;28;20434;-55
2021/11/16 04:21:30;;;;;;;80.50;29.88;;;;;;;5.73;90.42;102663.81;5039841;28;20111;-53
2021/11/16 04:23:56;;;;;;;79.03;31.00;;;;;;;5.77;90.34;102653.69;5039402;28;20094;-56
2021/11/16 04:26:22;;;;;;;77.15;29.73;;;;;;;5.78;90.40;102658.00;5039892;28;20169;-55
2021/11/16 04:28:48;;;;;;;84.43;31.38;;;;;;;5.79;90.48;102653.53;5045894;28;20042;-54
2021/11/16 04:31:13;;;;;;;85.80;33.40;;;;;;;5.79;90.08;102651.69;5037873;28;20035;-53
2021/11/16 04:33:40;;;;;;;78.22;30.73;;;;;;;5.81;90.21;102649.69;5040184;28;20035;-56
2021/11/16 04:36:05;;;;;;;84.90;31.88;;;;;;;5.80;90.38;102650.69;5036487;28;20013;-58
2021/11/16 04:38:31;;;;;;;78.10;31.83;;;;;;;5.80;90.24;102648.03;5042983;28;20043;-54
2021/11/16 04:40:58;;;;;;;83.05;31.50;;;;;;;5.83;90.33;102646.84;5036022;28;20364;-56
2021/11/16 04:43:27;;;;;;;86.05;29.67;;;;;;;5.84;90.23;102651.19;5038635;28;20033;-56
2021/11/16 04:45:58;;;;;;;84.45;31.05;;;;;;;5.82;90.29;102643.38;5033584;28;20022;-55
2021/11/16 04:51:23;;;;;;;84.10;31.52;;;;;;;5.83;90.36;102645.03;5034059;28;20078;-53
2021/11/16 05:04:26;;;;;;;84.38;31.55;;;;;;;5.78;90.65;102626.09;5042156;28;20044;-55
2021/11/16 05:06:53;;;;;;;86.57;32.40;;;;;;;5.83;90.53;102623.75;5040765;28;20021;-54
2021/11/16 05:09:20;;;;;;;79.97;30.05;;;;;;;5.86;89.97;102630.56;5039779;28;20396;-58
2021/11/16 05:11:46;;;;;;;85.10;31.33;;;;;;;5.83;90.12;102638.88;5043915;28;20616;-53
2021/11/16 05:14:11;;;;;;;82.22;31.65;;;;;;;5.85;90.23;102628.91;5040877;28;20071;-53
2021/11/16 05:16:37;;;;;;;92.65;31.80;;;;;;;5.87;89.80;102635.69;5039880;28;20031;-55
2021/11/16 05:19:02;;;;;;;89.95;33.28;;;;;;;5.87;90.19;102634.88;5038961;28;20037;-56
2021/11/16 05:21:28;;;;;;;86.15;33.13;;;;;;;5.88;90.09;102636.53;5038817;28;20025;-53
2021/11/16 05:23:57;;;;;;;103.75;33.90;;;;;;;5.87;89.66;102629.53;5041578;28;20421;-57
2021/11/16 05:26:24;;;;;;;82.47;31.83;;;;;;;5.86;90.12;102628.72;5038816;28;20450;-59
2021/11/16 05:28:51;;;;;;;83.15;31.85;;;;;;;5.89;89.67;102623.06;5040175;28;20056;-58
2021/11/16 05:31:17;;;;;;;95.43;33.08;;;;;;;5.88;89.81;102625.88;5036981;28;20032;-58
2021/11/16 05:33:44;;;;;;;85.15;32.92;;;;;;;5.84;89.60;102628.06;5036910;28;20033;-55
2021/11/16 05:36:10;;;;;;;83.55;33.33;;;;;;;5.87;89.72;102632.22;5040407;28;20052;-56
2021/11/16 05:38:38;;;;;;;103.68;34.83;;;;;;;5.80;89.77;102628.59;5033108;28;20044;-56
2021/11/16 05:41:05;;;;;;;96.80;35.30;;;;;;;5.81;89.70;102624.91;5033285;28;20033;-57
2021/11/16 05:43:32;;;;;;;93.18;33.63;;;;;;;5.80;89.73;102634.72;5043341;28;20032;-56
2021/11/16 05:45:59;;;;;;;93.80;32.60;;;;;;;5.81;89.79;102627.59;5034530;28;20029;-56
2021/11/16 05:48:32;;;;;;;88.85;30.52;;;;;;;5.84;89.65;102624.56;5042417;28;20024;-58
2021/11/16 05:50:57;;;;;;;94.07;32.67;;;;;;;5.78;89.55;102615.47;5065587;22;20097;-74
2021/11/16 05:53:23;;;;;;;92.72;34.33;;;;;;;5.74;90.21;102620.28;5047668;28;20032;-76
2021/11/16 05:55:48;;;;;;;95.65;35.75;;;;;;;5.78;89.77;102620.78;5053032;28;20060;-73
2021/11/16 05:58:19;;;;;;;92.72;32.95;;;;;;;5.81;89.76;102620.44;5043542;28;20490;-74
2021/11/16 06:00:45;;;;;;;88.78;32.33;;;;;;;5.81;89.78;102624.91;5040210;28;20039;-75
2021/11/16 06:03:11;;;;;;;84.40;32.42;;;;;;;5.80;89.92;102621.44;5040357;28;20470;-74
2021/11/16 06:05:37;;;;;;;94.07;32.97;;;;;;;5.74;90.29;102625.63;5038373;28;20112;-73
2021/11/16 06:08:04;;;;;;;94.15;34.85;;;;;;;5.73;90.20;102628.41;5043736;28;20041;-74
2021/11/16 06:10:30;;;;;;;86.05;31.10;;;;;;;5.70;90.55;102621.59;5047070;28;20040;-75
2021/11/16 06:12:55;;;;;;;88.63;32.30;;;;;;;5.76;90.55;102622.78;5043217;28;20036;-74
2021/11/16 06:15:24;;;;;;;94.28;32.78;;;;;;;5.73;90.90;102623.09;5039306;28;20029;-75
2021/11/16 06:17:50;;;;;;;87.20;30.52;;;;;;;5.78;90.28;102630.59;5050007;28;20379;-74
2021/11/16 06:20:20;;;;;;;91.72;33.15;;;;;;;5.75;90.46;102637.09;5046795;28;20045;-74
2021/11/16 06:22:46;;;;;;;97.28;32.38;;;;;;;5.75;90.45;102629.94;5039577;28;20441;-74
2021/11/16 06:25:11;;;;;;;87.75;32.75;;;;;;;5.74;90.32;102636.25;5047351;28;20070;-75
2021/11/16 06:27:37;;;;;;;88.57;33.38;;;;;;;5.74;90.52;102633.59;5045849;28;20083;-75
2021/11/16 06:30:04;;;;;;;90.25;32.65;;;;;;;5.69;91.24;102633.25;5046718;28;20035;-75
2021/11/16 06:32:29;;;;;;;90.00;33.63;;;;;;;5.72;90.70;102632.91;5047866;28;20479;-74
2021/11/16 06:34:55;;;;;;;94.28;32.97;;;;;;;5.73;90.85;102639.88;5046413;28;20061;-74
2021/11/16 06:37:21;;;;;;;96.55;34.28;;;;;;;5.72;91.30;102640.06;5041504;28;20032;-75
2021/11/16 06:39:46;;;;;;;99.75;34.65;;;;;;;5.70;91.35;102632.25;5053781;28;20112;-74
2021/11/16 06:42:15;;;;;;;100.35;34.58;;;;;;;5.66;91.86;102644.22;5052325;28;20464;-75
2021/11/16 06:44:42;;;;;;;100.43;35.90;;;;;;;5.69;91.72;102649.22;5052992;28;20024;-74
2021/11/16 06:47:12;;;;;;;91.97;33.47;;;;;;;5.73;91.84;102649.69;5047096;28;20033;-74
2021/11/16 06:49:40;;;;;;;100.10;36.40;;;;;;;5.77;91.64;102661.69;5052272;28;20035;-74
2021/11/16 06:52:06;;;;;;;94.68;31.50;;;;;;;5.57;92.01;102655.91;5045210;28;20039;-74
2021/11/16 06:54:32;;;;;;;95.82;33.08;;;;;;;5.57;92.69;102668.38;5046199;28;20025;-75
2021/11/16 06:56:58;;;;;;;95.10;34.47;;;;;;;5.70;91.98;102661.50;5043765;28;20055;-74
2021/11/16 06:59:25;;;;;;;94.90;33.47;;;;;;;5.72;91.70;102659.50;5043820;28;20025;-74
2021/11/16 07:01:52;;;;;;;94.65;33.50;;;;;;;5.77;91.59;102661.69;5045763;28;22040;-74
2021/11/16 07:04:18;;;;;;;100.80;35.35;;;;;;;5.69;91.71;102667.81;5052513;28;20100;-76
2021/11/16 07:06:46;;;;;;;95.00;31.58;;;;;;;5.63;92.54;102668.50;5044053;28;20127;-75
2021/11/16 07:09:14;;;;;;;92.28;33.08;;;;;;;5.67;92.15;102677.81;5044274;28;20025;-75
2021/11/16 07:11:49;;;;;;;96.53;34.25;;;;;;;5.75;91.66;102677.81;5045693;28;20703;-75
2021/11/16 07:14:19;;;;;;;101.22;34.78;;;;;;;5.79;91.60;102680.13;5047221;28;20058;-74
2021/11/16 07:16:51;;;;;;;98.28;34.72;;;;;;;5.76;91.43;102681.28;5068589;28;20044;-75
2021/11/16 07:19:17;;;;;;;95.57;35.38;;;;;;;5.76;91.96;102679.47;5046983;28;20439;-75
2021/11/16 07:21:42;;;;;;;102.10;35.17;;;;;;;5.76;91.91;102686.63;5046317;28;20118;-74
2021/11/16 07:24:14;;;;;;;101.05;34.97;;;;;;;5.74;92.00;102686.78;5044665;28;20402;-74
2021/11/16 07:26:41;;;;;;;98.25;33.85;;;;;;;5.81;92.23;102675.47;5050961;28;20099;-75
2021/11/16 07:29:14;;;;;;;98.18;33.20;;;;;;;5.69;92.37;102675.81;5050849;28;20108;-74
2021/11/16 07:31:43;;;;;;;98.25;34.15;;;;;;;5.78;92.41;102667.81;5049667;28;20107;-74
2021/11/16 07:34:20;;;;;;;106.78;35.95;;;;;;;5.82;92.00;102671.81;5045507;28;20026;-74
2021/11/16 07:36:58;;;;;;;101.78;35.47;;;;;;;5.77;91.83;102659.03;5029727;28;20512;-74
2021/11/16 07:39:26;;;;;;;107.47;35.92;;;;;;;5.83;91.86;102661.00;5040081;28;20552;-74
2021/11/16 07:42:03;;;;;;;101.82;35.50;;;;;;;5.83;91.53;102654.84;5053571;28;20111;-74
2021/11/16 07:44:29;;;;;;;96.28;34.10;;;;;;;5.85;91.66;102658.97;5042611;28;20033;-74
2021/11/16 07:46:56;;;;;;;92.40;33.88;;;;;;;5.79;91.71;102670.31;5046233;28;20098;-74
2021/11/16 07:49:23;;;;;;;113.30;36.95;;;;;;;5.74;92.19;102678.81;5051607;28;20021;-75
2021/11/16 07:51:50;;;;;;;105.88;35.33;;;;;;;5.78;92.15;102673.16;5048319;28;20028;-74
2021/11/16 07:54:28;;;;;;;106.60;34.58;;;;;;;5.69;92.33;102673.16;5040536;28;20030;-75
2021/11/16 07:57:02;;;;;;;111.72;37.13;;;;;;;5.78;92.20;102670.50;5044256;28;20052;-75
2021/11/16 07:59:28;;;;;;;120.50;35.97;;;;;;;5.80;92.36;102671.97;5050304;28;20025;-74
2021/11/16 08:01:58;;;;;;;116.28;37.50;;;;;;;5.82;92.07;102674.47;5057526;28;20376;-74
2021/11/16 08:07:12;;;;;;;111.72;37.55;;;;;;;5.83;92.21;102670.78;5047092;28;20034;-74
2021/11/16 08:09:42;;;;;;;117.30;39.22;;;;;;;5.74;92.78;102668.16;5056676;28;20025;-76
2021/11/16 08:14:49;;;;;;;117.68;36.50;;;;;;;5.80;93.00;102655.19;5040800;28;20032;-74
2021/11/16 08:17:15;;;;;;;119.65;37.30;;;;;;;5.82;93.02;102658.50;5039843;28;20071;-76
2021/11/16 08:19:41;;;;;;;114.63;38.13;;;;;;;5.84;92.73;102656.50;5039557;28;20483;-75
2021/11/16 08:22:13;;;;;;;120.43;37.42;;;;;;;5.84;92.54;102661.81;5042223;28;20056;-75
2021/11/16 08:24:42;;;;;;;122.65;37.53;;;;;;;5.84;92.76;102657.31;5053611;28;20025;-74
2021/11/16 08:27:11;;;;;;;108.32;36.47;;;;;;;5.66;93.58;102659.34;5054871;28;20055;-75
2021/11/16 08:29:41;;;;;;;116.75;36.58;;;;;;;5.50;94.73;102660.22;5055747;28;20055;-75
2021/11/16 08:32:21;;;;;;;106.10;35.70;;;;;;;5.60;94.42;102660.88;5045866;28;20108;-74
2021/11/16 08:34:51;;;;;;;108.47;33.85;;;;;;;5.44;95.44;102655.56;5048899;28;20025;-74
2021/11/16 08:37:17;;;;;;;102.45;34.28;;;;;;;5.41;95.88;102655.91;5044185;28;20056;-75
2021/11/16 08:39:46;;;;;;;101.43;33.65;;;;;;;5.37;96.47;102651.91;5056083;28;20479;-74
2021/11/16 08:42:25;;;;;;;110.90;35.60;;;;;;;5.30;96.76;102654.41;5056406;28;20508;-74
2021/11/16 08:45:02;;;;;;;103.05;31.10;;;;;;;5.34;96.82;102661.03;5044268;28;20032;-74
2021/11/16 08:47:32;;;;;;;107.78;34.70;;;;;;;5.23;97.85;102647.28;5056673;28;20116;-75
2021/11/16 08:49:58;;;;;;;109.88;33.88;;;;;;;5.38;97.47;102649.06;5040435;28;20032;-74
2021/11/16 08:52:27;;;;;;;101.40;29.92;;;;;;;5.40;97.16;102657.75;5044154;28;20025;-76
2021/11/16 08:54:57;;;;;;;114.95;38.33;;;;;;;5.29;97.48;102659.91;5053883;28;20670;-75
2021/11/16 08:57:24;;;;;;;120.65;36.22;;;;;;;5.36;97.39;102655.56;5045584;28;20032;-74
2021/11/16 08:59:50;;;;;;;111.35;31.63;;;;;;;5.46;97.33;102661.53;5055988;28;20107;-74
2021/11/16 09:02:18;;;;;;;100.97;33.55;;;;;;;5.29;97.81;102659.91;5061888;28;20040;-75
2021/11/16 09:04:44;;;;;;;110.07;35.72;;;;;;;5.31;98.38;102650.75;5054712;28;20037;-74
2021/11/16 09:07:29;;;;;;;113.68;35.25;;;;;;;5.20;98.80;102650.25;5045071;28;20032;-74
2021/11/16 09:10:07;;;;;;;114.00;34.83;;;;;;;5.10;99.65;102659.22;5047927;28;20650;-74
2021/11/16 09:12:44;;;;;;;83.95;28.48;;;;;;;5.16;99.66;102653.25;5050079;28;20431;-74
2021/11/16 09:15:13;;;;;;;107.30;30.77;;;;;;;5.12;99.55;102659.88;5038104;28;20026;-75
2021/11/16 09:17:40;;;;;;;102.65;33.08;;;;;;;5.23;99.73;102657.91;5050287;28;20486;-75
2021/11/16 09:20:18;;;;;;;116.25;32.53;;;;;;;5.31;98.93;102658.72;5042510;28;20040;-72
2021/11/16 09:22:44;;;;;;;104.40;31.50;;;;;;;5.25;98.70;102658.56;5059368;28;20016;-72
2021/11/16 09:25:20;;;;;;;114.18;33.20;;;;;;;5.28;98.86;102655.56;5064598;28;20024;-72
2021/11/16 09:27:48;;;;;;;100.72;32.38;;;;;;;5.28;98.76;102663.56;5038293;28;20044;-72
2021/11/16 09:30:15;;;;;;;109.63;33.65;;;;;;;5.20;99.40;102658.22;5044412;28;20550;-71
2021/11/16 09:33:04;;;;;;;97.60;31.08;;;;;;;5.04;100.00;102657.25;5048815;28;20052;-71
2021/11/16 09:35:48;;;;;;;86.82;26.38;;;;;;;5.01;100.00;102649.56;5049154;28;20056;-73
2021/11/16 09:38:29;;;;;;;95.05;29.27;;;;;;;5.12;100.00;102648.44;5054792;28;20494;-71
2021/11/16 09:40:55;;;;;;;88.28;27.00;;;;;;;5.03;100.00;102647.59;5049241;28;20676;-72
2021/11/16 09:43:24;;;;;;;101.32;31.20;;;;;;;5.05;100.00;102637.66;5047241;28;20020;-71
2021/11/16 09:45:50;;;;;;;93.97;29.92;;;;;;;5.12;100.00;102629.81;5051120;28;20028;-73
2021/11/16 09:48:26;;;;;;;105.22;31.05;;;;;;;5.00;100.00;102631.13;5051575;28;20037;-72
2021/11/16 09:50:53;;;;;;;101.68;30.98;;;;;;;5.03;100.00;102626.34;5048950;28;20078;-71
2021/11/16 09:53:19;;;;;;;101.35;32.85;;;;;;;5.18;100.00;102620.34;5049287;28;20025;-71
2021/11/16 09:55:45;;;;;;;94.20;30.23;;;;;;;5.39;100.00;102626.84;5045967;28;20386;-71
2021/11/16 09:58:26;;;;;;;104.47;31.13;;;;;;;5.50;99.43;102616.84;5046432;28;20048;-73
2021/11/16 10:00:53;;;;;;;88.93;29.35;;;;;;;5.54;98.35;102613.66;5062590;28;20479;-74
2021/11/16 10:03:22;;;;;;;93.30;29.42;;;;;;;5.73;98.01;102615.94;5043513;28;20038;-71
2021/11/16 10:05:54;;;;;;;89.07;30.02;;;;;;;5.91;97.41;102609.59;5059463;28;20020;-71
2021/11/16 10:08:20;;;;;;;92.75;30.85;;;;;;;6.06;96.41;102613.22;5044260;28;20506;-72
2021/11/16 10:10:49;;;;;;;97.63;29.23;;;;;;;6.14;95.58;102605.22;5046567;28;20025;-71
2021/11/16 10:13:20;;;;;;;91.55;29.05;;;;;;;6.00;94.59;102600.59;5045284;28;20033;-73
2021/11/16 10:15:52;;;;;;;92.65;29.85;;;;;;;6.11;94.82;102610.06;5048692;28;20542;-72
2021/11/16 10:18:21;;;;;;;76.53;27.92;;;;;;;6.23;94.51;102604.16;5048026;28;20025;-71
2021/11/16 10:20:47;;;;;;;85.28;28.80;;;;;;;6.36;94.15;102598.28;5051484;28;20033;-71
2021/11/16 10:23:32;;;;;;;86.68;30.75;;;;;;;6.49;93.78;102590.56;5041703;28;20116;-72
2021/11/16 10:25:58;;;;;;;;;;;;;;;6.50;93.12;102584.22;5048679;28;20103;-71
2021/11/16 10:28:24;;;;;;;95.38;30.00;;;;;;;6.59;92.75;102588.47;5056110;28;20294;-71
2021/11/16 10:30:51;;;;;;;87.13;28.05;;;;;;;6.62;92.23;102584.63;5045869;28;20036;-71
2021/11/16 10:33:22;;;;;;;96.43;30.05;;;;;;;6.59;91.68;102582.31;5049675;28;20032;-71
2021/11/16 10:35:55;;;;;;;108.25;33.33;;;;;;;6.56;91.33;102577.34;5053787;28;20028;-73
2021/11/16 10:38:24;;;;;;;88.53;30.10;;;;;;;6.57;91.49;102584.34;5038859;28;20052;-71
2021/11/16 10:40:51;;;;;;;84.45;29.20;;;;;;;6.62;91.34;102579.28;5059426;28;20036;-71
2021/11/16 10:43:17;;;;;;;80.53;29.13;;;;;;;6.65;91.24;102576.31;5030714;28;20021;-71
2021/11/16 10:45:46;;;;;;;89.63;28.20;;;;;;;6.69;90.94;102571.44;5045842;28;20364;-72
2021/11/16 10:48:16;;;;;;;93.55;30.67;;;;;;;6.67;90.75;102574.28;5046771;28;20040;-73
2021/11/16 10:50:45;;;;;;;93.30;29.40;;;;;;;6.59;90.51;102561.84;5046093;28;20498;-72
2021/11/16 10:53:18;;;;;;;89.93;29.75;;;;;;;6.58;90.93;102559.34;5044268;28;20394;-73
2021/11/16 10:55:44;;;;;;;91.00;29.95;;;;;;;6.61;91.20;102565.16;5055235;28;20025;-72
2021/11/16 10:58:13;;;;;;;92.57;30.85;;;;;;;6.63;90.59;102567.63;5063617;28;20035;-72
2021/11/16 11:00:45;;;;;;;89.65;29.92;;;;;;;6.64;90.99;102558.63;5045334;28;20072;-73
2021/11/16 11:03:23;;;;;;;96.53;30.92;;;;;;;6.63;90.67;102562.31;5041408;28;20044;-72
2021/11/16 11:05:59;;;;;;;96.25;31.45;;;;;;;6.67;90.66;102560.97;5032033;28;20124;-73
2021/11/16 11:08:36;;;;;;;96.75;30.30;;;;;;;6.68;90.32;102559.97;5041434;28;20052;-72
2021/11/16 11:11:03;;;;;;;94.75;30.08;;;;;;;6.74;90.46;102559.22;5058059;28;20163;-72
2021/11/16 11:13:32;;;;;;;93.43;29.52;;;;;;;6.78;89.98;102557.88;5048152;28;20138;-72
2021/11/16 11:15:58;;;;;;;100.32;30.85;;;;;;;6.76;89.61;102562.53;5047923;28;20060;-72
2021/11/16 11:18:36;;;;;;;93.05;31.38;;;;;;;6.72;89.70;102555.94;5040560;28;20025;-72
2021/11/16 11:21:05;;;;;;;93.32;30.77;;;;;;;6.70;89.63;102552.63;5043879;28;20033;-72
2021/11/16 11:23:46;;;;;;;94.35;30.00;;;;;;;6.69;89.79;102555.47;5057902;28;20040;-72
2021/11/16 11:26:40;;;;;;;87.50;30.38;;;;;;;6.68;89.51;102549.31;5047094;28;20445;-72
2021/11/16 11:32:00;;;;;;;83.00;28.25;;;;;;;6.70;89.97;102536.63;5060073;28;20037;-72
2021/11/16 11:34:42;;;;;;;81.25;26.95;;;;;;;6.72;89.84;102525.78;5049641;28;20029;-72
2021/11/16 11:37:17;;;;;;;78.57;28.50;;;;;;;6.78;89.24;102523.22;5043370;28;20021;-72
2021/11/16 11:39:45;;;;;;;85.32;29.83;;;;;;;6.80;89.38;102526.53;5042830;28;20102;-72
2021/11/16 11:42:14;;;;;;;69.82;25.95;;;;;;;6.84;89.19;102532.38;5065325;28;20028;-72
2021/11/16 11:44:54;;;;;;;69.70;26.00;;;;;;;6.87;89.46;102532.00;5036717;28;20025;-73
2021/11/16 11:47:28;;;;;;;73.60;25.40;;;;;;;6.92;88.92;102529.63;5052948;28;20040;-72